Main page
METAR-TAF:

METAR-TAF

Airports :

Cervia, Italy

Cervia Air Base

latitude: 44-13N, longitude: 012-18E, elevation: 6 m

Current weather observation

The report was made 44 minutes ago, at 21:55 UTC
Wind 2 kt from the South
Temperature 19°C
Humidity 88%
Pressure 1016 hPa
Visibility 10 km or more
no clouds below 1500 m and no cumulonimbus

METAR: LIPC 232155Z 19002KT CAVOK 19/17 Q1016 RMK SKC VIS MIN 9999 WIND THR11 //////KT WIND THR29 18002KT BLU

Time: 00:39 (22:39 UTC)

Forecast

The report was made 2 hours and 39 minutes ago, at 20:00 UTC
Forecast valid from 23 at 21 UTC to 24 at 06 UTC
Wind 5 kt from the South/Southeast
Visibility 10 km or more
Few clouds at a height of 6000 ft

TAF: LIPC 232000Z 2321/2406 15005KT 9999 FEW060

Weather observations and forecasts of more than 4000 airports (METAR and TAF reports).

The available stations are represented by yellow and red dots on the map.

Hover mouse over dot to see the name of the station.

Then click to see weather observations and forecasts.

To change the map : click on the green buttons with a black cross to zoom in, on the green button with a dash to zoom out, or on the green arrows for adjacent maps.


METAR-TAF: